Time;durP1;ratioP1;P1;durP2;ratioP2;P2;SDS_P1;SDS_P2;PMS_P1;PMS_P2;Temp;Humidity;BMP_temperature;BMP_pressure;BME280_temperature;BME280_humidity;BME280_pressure;Samples;Min_cycle;Max_cycle;Signal;HPM_P1;HPM_P2
2024/02/24 00:00:42;;;;;;;3.08;1.40;;;5.20;99.90;;;;;;5035537;28;20299;-64
2024/02/24 00:03:09;;;;;;;3.20;1.40;;;5.30;99.90;;;;;;5034580;28;20223;-66
2024/02/24 00:05:35;;;;;;;3.28;2.88;;;5.30;99.90;;;;;;5034900;28;20229;-65
2024/02/24 00:08:02;;;;;;;3.88;1.30;;;5.30;99.90;;;;;;5034863;28;20299;-65
2024/02/24 00:10:29;;;;;;;2.75;1.40;;;5.30;99.90;;;;;;5034463;28;20204;-66
2024/02/24 00:12:56;;;;;;;2.85;1.20;;;5.20;99.90;;;;;;5034315;28;20244;-65
2024/02/24 00:15:24;;;;;;;7.05;1.45;;;5.20;99.90;;;;;;5034327;28;20295;-65
2024/02/24 00:17:51;;;;;;;1.33;1.20;;;5.20;99.90;;;;;;5034538;28;20219;-65
2024/02/24 00:20:17;;;;;;;6.15;1.80;;;5.20;99.90;;;;;;5035189;28;20198;-65
2024/02/24 00:22:44;;;;;;;3.53;1.70;;;5.20;99.90;;;;;;5034356;28;20589;-66
2024/02/24 00:25:11;;;;;;;4.20;1.48;;;5.20;99.90;;;;;;5034370;28;20213;-65
2024/02/24 00:27:38;;;;;;;3.92;1.80;;;5.20;99.90;;;;;;5034172;28;20294;-65
2024/02/24 00:30:05;;;;;;;2.00;1.40;;;5.10;99.90;;;;;;5038282;28;20242;-65
2024/02/24 00:32:34;;;;;;;2.15;1.30;;;5.10;99.90;;;;;;5037626;28;20602;-65
2024/02/24 00:35:00;;;;;;;5.53;2.20;;;5.10;99.90;;;;;;5037840;28;20213;-65
2024/02/24 00:37:27;;;;;;;4.00;1.45;;;5.00;99.90;;;;;;5038278;28;20208;-65
2024/02/24 00:39:54;;;;;;;6.97;1.60;;;5.00;99.90;;;;;;5038084;28;20669;-65
2024/02/24 00:42:20;;;;;;;4.60;1.55;;;4.90;99.90;;;;;;5037719;28;20230;-67
2024/02/24 00:44:47;;;;;;;10.38;2.13;;;4.90;99.90;;;;;;5039135;28;20207;-66
2024/02/24 00:47:14;;;;;;;4.75;2.00;;;4.90;99.90;;;;;;5038462;28;20207;-64
2024/02/24 00:49:42;;;;;;;2.25;1.33;;;4.80;99.90;;;;;;5038722;28;20202;-65
2024/02/24 00:52:09;;;;;;;3.60;1.70;;;4.80;99.90;;;;;;5037461;28;20226;-64
2024/02/24 00:54:35;;;;;;;3.20;2.47;;;4.80;99.90;;;;;;5038026;28;20212;-64
2024/02/24 00:57:02;;;;;;;4.50;1.38;;;4.80;99.90;;;;;;5038046;28;20233;-66
2024/02/24 00:59:29;;;;;;;3.10;1.85;;;4.70;99.90;;;;;;5037931;28;20245;-65
2024/02/24 01:01:56;;;;;;;3.50;1.67;;;4.70;99.90;;;;;;5037245;28;20218;-65
2024/02/24 01:04:23;;;;;;;3.35;1.52;;;4.70;99.90;;;;;;5037966;28;20234;-65
2024/02/24 01:06:52;;;;;;;4.95;1.80;;;4.70;99.90;;;;;;5038091;28;20231;-64
2024/02/24 01:09:19;;;;;;;2.75;1.85;;;4.60;99.90;;;;;;5037851;28;20195;-65
2024/02/24 01:11:45;;;;;;;2.45;1.42;;;4.60;99.90;;;;;;5037238;28;20206;-65
2024/02/24 01:14:12;;;;;;;5.60;2.60;;;4.60;99.90;;;;;;5036689;28;20676;-64
2024/02/24 01:16:39;;;;;;;2.28;1.70;;;4.60;99.90;;;;;;5036689;28;20210;-65
2024/02/24 01:19:06;;;;;;;2.50;1.30;;;4.50;99.90;;;;;;5036617;28;20222;-64
2024/02/24 01:21:33;;;;;;;4.20;2.22;;;4.50;99.90;;;;;;5037100;28;20270;-64
2024/02/24 01:24:01;;;;;;;1.65;1.55;;;4.50;99.90;;;;;;5036519;28;20227;-65
2024/02/24 01:26:28;;;;;;;2.80;1.80;;;4.50;99.90;;;;;;5036967;28;20204;-64
2024/02/24 01:28:55;;;;;;;1.90;1.35;;;4.50;99.90;;;;;;5036828;28;20202;-64
2024/02/24 01:31:21;;;;;;;5.50;2.03;;;4.50;99.90;;;;;;5036640;28;20210;-64
2024/02/24 01:33:48;;;;;;;3.20;1.85;;;4.50;99.90;;;;;;5036900;28;20229;-66
2024/02/24 01:36:15;;;;;;;6.68;2.25;;;4.50;99.90;;;;;;5036624;28;20204;-64
2024/02/24 01:38:42;;;;;;;3.08;1.55;;;4.50;99.90;;;;;;5036363;28;20594;-65
2024/02/24 01:41:11;;;;;;;2.47;1.60;;;4.40;99.90;;;;;;5036551;28;20199;-66
2024/02/24 01:43:38;;;;;;;6.30;2.08;;;4.40;99.90;;;;;;5036336;28;20219;-65
2024/02/24 01:46:06;;;;;;;5.47;1.45;;;4.40;99.90;;;;;;5036355;28;20229;-65
2024/02/24 01:48:34;;;;;;;3.90;1.85;;;4.40;99.90;;;;;;5036107;28;20669;-63
2024/02/24 01:51:00;;;;;;;2.65;1.60;;;4.40;99.90;;;;;;5037225;28;20209;-65
2024/02/24 01:53:30;;;;;;;6.70;2.20;;;4.40;99.90;;;;;;5037395;28;20230;-64
2024/02/24 01:55:58;;;;;;;3.72;1.83;;;4.30;99.90;;;;;;5038154;28;20210;-65
2024/02/24 01:58:29;;;;;;;3.00;1.80;;;4.30;99.90;;;;;;5037714;28;20219;-66
2024/02/24 02:00:56;;;;;;;4.70;1.58;;;4.30;99.90;;;;;;5038133;28;20277;-64
2024/02/24 02:03:23;;;;;;;3.72;1.60;;;4.20;99.90;;;;;;5038084;28;20224;-65
2024/02/24 02:05:50;;;;;;;6.93;1.70;;;4.20;99.90;;;;;;5036883;28;20284;-65
2024/02/24 02:08:16;;;;;;;8.48;2.35;;;4.20;99.90;;;;;;5036586;28;20368;-64
2024/02/24 02:10:45;;;;;;;3.67;1.60;;;4.20;99.90;;;;;;5036981;28;20672;-66
2024/02/24 02:13:11;;;;;;;4.07;1.50;;;4.20;99.90;;;;;;5036506;28;20232;-64
2024/02/24 02:15:40;;;;;;;1.55;1.27;;;4.20;99.90;;;;;;5036359;28;20298;-64
2024/02/24 02:18:07;;;;;;;5.47;1.45;;;4.20;99.90;;;;;;5036213;28;20800;-65
2024/02/24 02:20:34;;;;;;;1.83;1.40;;;4.20;99.90;;;;;;5036060;28;20205;-64
2024/02/24 02:23:02;;;;;;;3.03;1.65;;;4.20;99.90;;;;;;5036475;28;20289;-63
2024/02/24 02:25:29;;;;;;;5.72;1.80;;;4.10;99.90;;;;;;5036425;28;20199;-65
2024/02/24 02:27:56;;;;;;;2.40;1.73;;;4.10;99.90;;;;;;5035894;28;20203;-65
2024/02/24 02:30:23;;;;;;;1.85;1.45;;;4.10;99.90;;;;;;5036032;28;20206;-63
2024/02/24 02:32:49;;;;;;;3.13;2.13;;;4.10;99.90;;;;;;5036140;28;20229;-65
2024/02/24 02:35:16;;;;;;;2.38;1.30;;;4.10;99.90;;;;;;5037148;28;20209;-63
2024/02/24 02:37:43;;;;;;;1.98;1.35;;;4.10;99.90;;;;;;5035314;28;20209;-64
2024/02/24 02:40:12;;;;;;;4.40;1.75;;;4.00;99.90;;;;;;5034977;28;20219;-65
2024/02/24 02:42:38;;;;;;;3.35;1.70;;;4.10;99.90;;;;;;5034938;28;20224;-64
2024/02/24 02:45:06;;;;;;;2.83;1.33;;;4.10;99.90;;;;;;5035275;28;20210;-65
2024/02/24 02:47:33;;;;;;;4.70;1.60;;;4.10;99.90;;;;;;5034847;28;20215;-65
2024/02/24 02:50:00;;;;;;;4.75;1.75;;;4.00;99.90;;;;;;5035266;28;20206;-64
2024/02/24 02:52:26;;;;;;;2.42;1.35;;;4.00;99.90;;;;;;5033888;28;20218;-64
2024/02/24 02:54:53;;;;;;;4.13;1.40;;;4.00;99.90;;;;;;5034881;28;20206;-64
2024/02/24 02:57:21;;;;;;;3.88;1.77;;;4.00;99.90;;;;;;5034860;28;20218;-65
2024/02/24 02:59:48;;;;;;;2.17;1.50;;;4.00;99.90;;;;;;5034555;28;20225;-65
2024/02/24 03:02:15;;;;;;;3.33;1.80;;;4.00;99.90;;;;;;5034669;28;20245;-64
2024/02/24 03:04:42;;;;;;;4.03;1.80;;;3.90;99.90;;;;;;5034895;28;20199;-65
2024/02/24 03:07:08;;;;;;;3.30;1.50;;;3.90;99.90;;;;;;5035398;28;20535;-64
2024/02/24 03:09:35;;;;;;;3.67;2.25;;;3.90;99.90;;;;;;5035380;28;20199;-64
2024/02/24 03:12:02;;;;;;;4.35;1.58;;;3.90;99.90;;;;;;5035071;28;20210;-64
2024/02/24 03:14:30;;;;;;;8.10;1.90;;;3.90;99.90;;;;;;5033992;28;20616;-64
2024/02/24 03:16:57;;;;;;;3.50;1.70;;;3.90;99.90;;;;;;5034437;28;20233;-64
2024/02/24 03:19:24;;;;;;;5.72;1.63;;;3.90;99.90;;;;;;5033803;28;20668;-63
2024/02/24 03:21:50;;;;;;;4.32;1.88;;;3.90;99.90;;;;;;5033516;28;20626;-65
2024/02/24 03:24:17;;;;;;;2.67;1.75;;;3.90;99.90;;;;;;5033870;28;20206;-63
2024/02/24 03:26:44;;;;;;;3.13;2.00;;;3.90;99.90;;;;;;5033944;28;20209;-64
2024/02/24 03:29:11;;;;;;;7.80;1.60;;;3.90;99.90;;;;;;5033560;28;20209;-63
2024/02/24 03:31:39;;;;;;;4.28;1.88;;;3.90;99.90;;;;;;5033773;28;20210;-63
2024/02/24 03:34:07;;;;;;;1.83;1.25;;;3.90;99.90;;;;;;5033714;28;20225;-65
2024/02/24 03:36:34;;;;;;;2.17;1.48;;;4.00;99.90;;;;;;5033797;28;20210;-64
2024/02/24 03:39:00;;;;;;;4.10;1.65;;;3.90;99.90;;;;;;5033727;28;20218;-64
2024/02/24 03:41:31;;;;;;;4.07;1.45;;;3.90;99.90;;;;;;5033690;28;20258;-63
2024/02/24 03:43:58;;;;;;;6.95;1.25;;;3.90;99.90;;;;;;5033324;28;20753;-64
2024/02/24 03:46:25;;;;;;;3.00;1.90;;;3.90;99.90;;;;;;5033334;28;20578;-63
2024/02/24 03:48:53;;;;;;;4.55;1.70;;;4.00;99.90;;;;;;5033182;28;20575;-63
2024/02/24 03:51:20;;;;;;;5.10;1.55;;;4.00;99.90;;;;;;5033383;28;20677;-63
2024/02/24 03:53:47;;;;;;;3.60;1.60;;;4.10;99.90;;;;;;5033572;28;20233;-65
2024/02/24 03:56:13;;;;;;;5.00;1.52;;;4.10;99.90;;;;;;5033629;28;20216;-63
2024/02/24 03:58:42;;;;;;;2.67;1.30;;;4.20;99.90;;;;;;5033466;28;20225;-65
2024/02/24 04:01:08;;;;;;;3.40;1.40;;;4.30;99.90;;;;;;5034073;28;20672;-64
2024/02/24 04:03:35;;;;;;;6.65;1.75;;;4.30;99.90;;;;;;5033155;28;20224;-65
2024/02/24 04:06:04;;;;;;;4.13;1.73;;;4.40;99.90;;;;;;5033782;28;20676;-64
2024/02/24 04:08:31;;;;;;;2.90;1.60;;;4.40;99.90;;;;;;5034538;28;20198;-64
2024/02/24 04:13:17;;;;;;;2.70;1.95;;;4.50;99.90;;;;;;5091775;27;20570;-64
2024/02/24 04:15:47;;;;;;;4.25;1.50;;;4.50;99.90;;;;;;5091516;28;20275;-64
2024/02/24 04:18:14;;;;;;;2.80;1.70;;;4.50;99.90;;;;;;5090766;28;20201;-63
2024/02/24 04:20:40;;;;;;;4.60;1.58;;;4.50;99.90;;;;;;5090471;28;20216;-63
2024/02/24 04:23:14;;;;;;;2.08;1.23;;;4.50;99.90;;;;;;5090290;28;20262;-63
2024/02/24 04:25:40;;;;;;;2.88;1.60;;;4.40;99.90;;;;;;5090107;28;20205;-64
2024/02/24 04:28:07;;;;;;;6.30;1.70;;;4.40;99.90;;;;;;5090246;28;20674;-64
2024/02/24 04:30:37;;;;;;;2.78;1.50;;;4.40;99.90;;;;;;5090610;28;20204;-63
2024/02/24 04:33:04;;;;;;;1.85;1.50;;;4.30;99.90;;;;;;5090923;28;20229;-65
2024/02/24 04:35:31;;;;;;;2.13;1.70;;;4.30;99.90;;;;;;5090644;28;20569;-64
2024/02/24 04:37:58;;;;;;;1.60;1.35;;;4.30;99.90;;;;;;5090497;28;20212;-64
2024/02/24 04:40:24;;;;;;;3.35;1.80;;;4.20;99.90;;;;;;5090640;28;20212;-64
2024/02/24 04:42:51;;;;;;;2.65;1.70;;;4.20;99.90;;;;;;5090261;28;20702;-64
2024/02/24 04:45:18;;;;;;;2.58;1.75;;;4.20;99.90;;;;;;5090384;28;20211;-64
2024/02/24 04:47:46;;;;;;;4.38;2.30;;;4.10;99.90;;;;;;5090613;28;20205;-64
2024/02/24 04:50:13;;;;;;;3.50;1.60;;;4.10;99.90;;;;;;5090074;28;20207;-64
2024/02/24 04:52:39;;;;;;;1.85;1.60;;;4.10;99.90;;;;;;5089962;28;20737;-64
2024/02/24 04:55:07;;;;;;;4.72;1.67;;;4.10;99.90;;;;;;5090459;28;20210;-64
2024/02/24 04:57:33;;;;;;;2.67;1.88;;;4.00;99.90;;;;;;5090071;28;20201;-64
2024/02/24 05:00:00;;;;;;;3.78;1.45;;;4.00;99.90;;;;;;5089837;28;20203;-66
2024/02/24 05:02:27;;;;;;;2.03;1.40;;;4.00;99.90;;;;;;5090772;22;20233;-58
2024/02/24 05:04:55;;;;;;;2.95;1.60;;;4.00;99.90;;;;;;5069225;28;20588;-58
2024/02/24 05:07:22;;;;;;;1.92;1.30;;;4.00;99.90;;;;;;5069482;28;20698;-59
2024/02/24 05:09:48;;;;;;;2.45;1.85;;;4.00;99.90;;;;;;5069483;28;20546;-59
2024/02/24 05:12:16;;;;;;;7.20;1.98;;;4.00;99.90;;;;;;5069223;28;20233;-59
2024/02/24 05:14:43;;;;;;;7.40;1.40;;;4.00;99.90;;;;;;5069624;28;20528;-59
2024/02/24 05:17:12;;;;;;;2.03;1.50;;;4.00;99.90;;;;;;5069203;28;20202;-58
2024/02/24 05:19:38;;;;;;;3.60;1.60;;;4.00;99.90;;;;;;5069507;28;20222;-59
2024/02/24 05:22:06;;;;;;;5.13;2.05;;;4.00;99.90;;;;;;5069234;28;20226;-58
2024/02/24 05:24:33;;;;;;;3.40;1.45;;;3.90;99.90;;;;;;5056221;28;20203;-61
2024/02/24 05:27:00;;;;;;;4.32;1.65;;;3.90;99.90;;;;;;5056699;28;20198;-58
2024/02/24 05:29:27;;;;;;;5.03;1.80;;;4.00;99.90;;;;;;5056106;28;20228;-58
2024/02/24 05:31:54;;;;;;;3.15;1.70;;;4.00;99.90;;;;;;5056131;28;20707;-59
2024/02/24 05:34:20;;;;;;;5.95;1.90;;;4.00;99.90;;;;;;5056285;28;20205;-59
2024/02/24 05:36:48;;;;;;;2.55;1.60;;;3.90;99.90;;;;;;5056843;28;20643;-57
2024/02/24 05:39:16;;;;;;;2.50;1.73;;;3.90;99.90;;;;;;5056000;28;20209;-58
2024/02/24 05:41:43;;;;;;;3.45;2.08;;;3.90;99.90;;;;;;5055880;28;20221;-59
2024/02/24 05:44:10;;;;;;;5.90;1.88;;;3.90;99.90;;;;;;5055582;28;20203;-59
2024/02/24 05:46:36;;;;;;;3.35;1.90;;;3.90;99.90;;;;;;5055801;28;20244;-57
2024/02/24 05:49:03;;;;;;;4.20;1.55;;;3.90;99.90;;;;;;5055676;28;20199;-59
2024/02/24 05:51:30;;;;;;;2.10;1.45;;;3.90;99.90;;;;;;5055263;28;20225;-59
2024/02/24 05:53:57;;;;;;;2.67;1.98;;;3.90;99.90;;;;;;5055491;28;20206;-58
2024/02/24 05:56:25;;;;;;;2.33;1.60;;;3.80;99.90;;;;;;5055702;28;20205;-59
2024/02/24 05:58:52;;;;;;;2.53;1.75;;;3.80;99.90;;;;;;5055356;28;20224;-58
2024/02/24 06:01:19;;;;;;;2.55;1.50;;;3.80;99.90;;;;;;5054950;28;20226;-58
2024/02/24 06:03:46;;;;;;;2.90;1.83;;;3.80;99.90;;;;;;5055015;28;20186;-58
2024/02/24 06:06:12;;;;;;;6.13;1.95;;;3.70;99.90;;;;;;5054623;28;20669;-58
2024/02/24 06:08:39;;;;;;;2.15;1.55;;;3.80;99.90;;;;;;5054936;28;20201;-59
2024/02/24 06:11:07;;;;;;;2.50;1.50;;;3.80;99.90;;;;;;5054770;28;20225;-58
2024/02/24 06:13:35;;;;;;;4.55;1.95;;;3.70;99.90;;;;;;5054742;28;20226;-60
2024/02/24 06:16:01;;;;;;;2.95;1.70;;;3.80;99.90;;;;;;5054704;28;20217;-59
2024/02/24 06:18:30;;;;;;;2.53;1.55;;;3.80;99.90;;;;;;5054702;28;20228;-59
2024/02/24 06:20:57;;;;;;;7.78;1.98;;;3.70;99.90;;;;;;5054904;28;20690;-59
2024/02/24 06:23:24;;;;;;;3.55;1.77;;;3.80;99.90;;;;;;5054740;28;20203;-58
2024/02/24 06:25:50;;;;;;;2.60;2.03;;;3.80;99.90;;;;;;5055694;28;20261;-59
2024/02/24 06:28:17;;;;;;;1.80;1.52;;;3.80;99.90;;;;;;5056939;28;20206;-58
2024/02/24 06:30:46;;;;;;;2.17;1.75;;;3.90;99.90;;;;;;5055625;28;20213;-59
2024/02/24 06:33:13;;;;;;;3.75;1.73;;;4.00;99.90;;;;;;5056332;28;20214;-58
2024/02/24 06:35:39;;;;;;;5.15;2.40;;;4.10;99.90;;;;;;5053056;28;20761;-58
2024/02/24 06:38:06;;;;;;;2.13;1.92;;;4.20;99.90;;;;;;5054549;28;20206;-59
2024/02/24 06:40:33;;;;;;;1.92;1.65;;;4.30;99.90;;;;;;5054098;28;20198;-59
2024/02/24 06:43:00;;;;;;;2.88;1.85;;;4.30;99.90;;;;;;5054003;28;20768;-59
2024/02/24 06:45:27;;;;;;;2.10;1.90;;;4.40;99.90;;;;;;5053818;28;20571;-59
2024/02/24 06:47:55;;;;;;;2.35;1.58;;;4.50;99.90;;;;;;5054113;28;20213;-58
2024/02/24 06:50:21;;;;;;;4.43;1.70;;;4.50;99.90;;;;;;5054350;28;20209;-58
2024/02/24 06:52:48;;;;;;;4.00;2.30;;;4.60;99.90;;;;;;5053429;28;20592;-58
2024/02/24 06:55:15;;;;;;;3.03;1.50;;;4.60;99.90;;;;;;5054033;28;20211;-58
2024/02/24 06:57:44;;;;;;;3.78;1.90;;;4.70;99.90;;;;;;5053525;28;20232;-57
2024/02/24 07:00:12;;;;;;;4.13;1.95;;;4.70;99.90;;;;;;5053212;28;20672;-58
2024/02/24 07:02:39;;;;;;;3.35;1.98;;;4.80;99.90;;;;;;5053540;28;20225;-58
2024/02/24 07:05:09;;;;;;;4.50;1.60;;;4.80;99.90;;;;;;5053633;28;20199;-60
2024/02/24 07:07:36;;;;;;;1.52;1.40;;;4.90;99.90;;;;;;5053755;28;20199;-59
2024/02/24 07:10:04;;;;;;;6.15;2.63;;;4.90;99.90;;;;;;5053784;28;20202;-58
2024/02/24 07:12:30;;;;;;;3.10;1.63;;;5.00;99.90;;;;;;5053411;28;20676;-57
2024/02/24 07:14:57;;;;;;;3.95;1.80;;;5.00;99.90;;;;;;5053713;28;20202;-59
2024/02/24 07:17:23;;;;;;;6.00;2.40;;;5.00;99.90;;;;;;5053296;28;20648;-59
2024/02/24 07:19:50;;;;;;;2.70;1.83;;;5.00;99.90;;;;;;5053558;28;20225;-59
2024/02/24 07:22:18;;;;;;;2.70;1.63;;;4.90;99.90;;;;;;5053576;28;20229;-59
2024/02/24 07:24:45;;;;;;;9.13;2.30;;;5.00;99.90;;;;;;5053840;28;20199;-59
2024/02/24 07:27:12;;;;;;;2.13;1.77;;;5.10;99.90;;;;;;5053795;28;20207;-59
2024/02/24 07:29:39;;;;;;;2.28;2.00;;;5.20;99.90;;;;;;5053555;28;20220;-59
2024/02/24 07:32:06;;;;;;;5.40;2.00;;;5.50;99.90;;;;;;5053471;28;20235;-58
2024/02/24 07:34:33;;;;;;;4.28;1.70;;;5.70;99.90;;;;;;5053306;28;20199;-59
2024/02/24 07:37:01;;;;;;;6.22;2.30;;;5.90;99.90;;;;;;5052890;28;20253;-59
2024/02/24 07:39:29;;;;;;;3.90;1.92;;;6.10;99.90;;;;;;5053027;28;20278;-58
2024/02/24 07:41:56;;;;;;;5.05;2.10;;;6.20;99.90;;;;;;5053104;28;20596;-59
2024/02/24 07:44:23;;;;;;;2.50;2.25;;;6.40;99.90;;;;;;5052835;28;20211;-59
2024/02/24 07:46:50;;;;;;;4.70;2.20;;;6.60;99.90;;;;;;5053737;28;20212;-58
2024/02/24 07:49:17;;;;;;;3.33;1.98;;;6.90;99.90;;;;;;5053243;28;20203;-59
2024/02/24 07:51:44;;;;;;;2.55;2.05;;;7.30;99.90;;;;;;5052928;28;20306;-59
2024/02/24 07:54:10;;;;;;;4.30;2.03;;;7.40;99.90;;;;;;5053045;28;20235;-60
2024/02/24 07:56:38;;;;;;;2.95;1.95;;;7.60;99.90;;;;;;5053097;28;20215;-60
2024/02/24 07:59:05;;;;;;;4.35;1.83;;;7.70;99.90;;;;;;5053292;28;20223;-58
2024/02/24 08:01:32;;;;;;;4.35;1.55;;;7.90;99.90;;;;;;5052918;28;20249;-58
2024/02/24 08:03:59;;;;;;;2.83;1.85;;;8.00;99.90;;;;;;5052638;28;20203;-58
2024/02/24 08:06:25;;;;;;;5.97;2.00;;;8.10;99.90;;;;;;5052832;28;20214;-58
2024/02/24 08:08:52;;;;;;;4.40;2.10;;;8.20;99.90;;;;;;5052280;28;20204;-58
2024/02/24 08:11:19;;;;;;;2.58;2.25;;;8.30;99.90;;;;;;5052327;28;20754;-59
2024/02/24 08:13:47;;;;;;;2.90;1.73;;;8.40;99.90;;;;;;5052717;28;20222;-59
2024/02/24 08:16:14;;;;;;;3.55;1.90;;;8.50;99.90;;;;;;5053088;28;20211;-59
2024/02/24 08:18:41;;;;;;;3.13;1.90;;;8.50;99.90;;;;;;5052581;28;20207;-59
2024/02/24 08:21:08;;;;;;;4.50;1.60;;;8.40;99.90;;;;;;5052388;28;20235;-58
2024/02/24 08:23:35;;;;;;;2.83;1.85;;;8.30;99.90;;;;;;5052688;28;20209;-58
2024/02/24 08:26:02;;;;;;;3.88;2.10;;;8.20;99.90;;;;;;5052477;28;20211;-58
2024/02/24 08:28:29;;;;;;;3.53;2.10;;;8.20;99.90;;;;;;5052799;28;20313;-60
2024/02/24 08:30:59;;;;;;;3.45;1.90;;;8.20;99.90;;;;;;5052740;28;20246;-59
2024/02/24 08:33:26;;;;;;;3.42;1.88;;;8.10;99.90;;;;;;5052155;28;20805;-59
2024/02/24 08:35:53;;;;;;;3.50;1.50;;;8.10;99.90;;;;;;5052552;28;20698;-58
2024/02/24 08:38:20;;;;;;;5.85;1.45;;;8.10;99.90;;;;;;5052269;28;20687;-59
2024/02/24 08:40:46;;;;;;;2.70;1.70;;;8.20;99.90;;;;;;5052456;28;20212;-57
2024/02/24 08:43:14;;;;;;;3.60;1.80;;;8.40;99.90;;;;;;5052219;28;20205;-59
2024/02/24 08:45:41;;;;;;;2.60;2.05;;;8.50;99.90;;;;;;5052915;28;20211;-59
2024/02/24 08:48:12;;;;;;;2.90;1.80;;;8.70;99.80;;;;;;5053010;28;20293;-58
2024/02/24 08:50:38;;;;;;;3.15;1.60;;;8.70;99.30;;;;;;5052599;28;20472;-57
2024/02/24 08:53:05;;;;;;;3.75;1.48;;;8.80;98.90;;;;;;5052202;28;20225;-59
2024/02/24 08:55:32;;;;;;;2.70;1.92;;;8.60;98.00;;;;;;5052219;28;20202;-58
2024/02/24 08:57:59;;;;;;;2.35;1.60;;;8.40;98.30;;;;;;5053009;28;20365;-58
2024/02/24 09:00:26;;;;;;;2.28;1.80;;;8.20;99.00;;;;;;5056516;28;20207;-59
2024/02/24 09:02:53;;;;;;;2.90;1.90;;;8.10;99.00;;;;;;5055949;28;20226;-60
2024/02/24 09:05:21;;;;;;;2.78;1.83;;;7.90;99.20;;;;;;5055968;28;20217;-59
2024/02/24 09:07:48;;;;;;;3.40;1.60;;;7.80;99.50;;;;;;5056131;28;20205;-58
2024/02/24 09:10:14;;;;;;;3.05;1.50;;;7.60;99.90;;;;;;5056496;28;20202;-59
2024/02/24 09:12:41;;;;;;;2.92;1.90;;;7.50;99.90;;;;;;5056202;28;20236;-59
2024/02/24 09:15:09;;;;;;;3.08;2.15;;;7.40;99.90;;;;;;5055882;28;20216;-59
2024/02/24 09:17:35;;;;;;;3.75;1.83;;;7.40;99.90;;;;;;5056282;28;20206;-58
2024/02/24 09:20:03;;;;;;;4.45;2.42;;;7.40;99.90;;;;;;5055660;28;20207;-58
2024/02/24 09:22:31;;;;;;;3.13;2.00;;;7.40;99.90;;;;;;5056288;28;20250;-59
2024/02/24 09:24:58;;;;;;;5.07;2.00;;;7.50;99.90;;;;;;5056458;28;20204;-59
2024/02/24 09:27:25;;;;;;;2.70;1.48;;;7.60;99.90;;;;;;5055867;28;20237;-59
2024/02/24 09:29:51;;;;;;;3.25;1.25;;;7.70;99.90;;;;;;5055705;28;20204;-59
2024/02/24 09:32:18;;;;;;;6.38;1.55;;;7.80;99.90;;;;;;5055459;28;20232;-58
2024/02/24 09:34:45;;;;;;;2.30;1.60;;;8.00;99.90;;;;;;5055615;28;20247;-59
2024/02/24 09:37:12;;;;;;;1.40;1.27;;;8.20;99.90;;;;;;5056158;28;20227;-59
2024/02/24 09:39:41;;;;;;;3.17;1.67;;;8.40;99.90;;;;;;5056015;28;20213;-58
2024/02/24 09:42:09;;;;;;;4.47;1.60;;;8.60;99.10;;;;;;5055866;28;20228;-58
2024/02/24 09:44:36;;;;;;;2.83;1.40;;;8.70;98.50;;;;;;5056454;28;20196;-60
2024/02/24 09:47:03;;;;;;;6.47;1.77;;;8.90;98.10;;;;;;5055690;28;20203;-59
2024/02/24 09:49:31;;;;;;;2.30;1.48;;;9.10;97.50;;;;;;5055023;28;20278;-58
2024/02/24 09:51:59;;;;;;;3.50;1.50;;;9.30;96.60;;;;;;5055365;28;20230;-58
2024/02/24 09:54:27;;;;;;;2.13;1.57;;;9.40;96.00;;;;;;5055315;28;20826;-59
2024/02/24 09:56:56;;;;;;;4.27;2.17;;;9.30;95.30;;;;;;5055661;28;20509;-59
2024/02/24 09:59:23;;;;;;;4.57;1.80;;;9.30;95.40;;;;;;5055342;28;20650;-60
2024/02/24 10:01:50;;;;;;;2.53;1.33;;;9.20;95.50;;;;;;5055186;28;20473;-59
2024/02/24 10:04:18;;;;;;;1.80;1.70;;;9.20;95.50;;;;;;5055066;28;20203;-59
2024/02/24 10:06:45;;;;;;;1.85;1.58;;;9.20;95.40;;;;;;5055516;28;20452;-61
2024/02/24 10:09:12;;;;;;;2.65;1.60;;;9.20;95.60;;;;;;5055008;28;20207;-62
2024/02/24 10:11:40;;;;;;;2.27;1.40;;;9.40;95.50;;;;;;5055128;28;20239;-61
2024/02/24 10:14:09;;;;;;;1.90;1.03;;;9.50;95.10;;;;;;5055273;28;20491;-61
2024/02/24 10:16:37;;;;;;;1.80;1.20;;;9.60;94.30;;;;;;5056067;28;20945;-62
2024/02/24 10:19:05;;;;;;;2.57;1.60;;;9.60;93.40;;;;;;5055710;28;20449;-61
2024/02/24 10:21:32;;;;;;;3.70;1.40;;;9.50;92.60;;;;;;5055159;28;20531;-61
2024/02/24 10:23:59;;;;;;;2.10;1.40;;;9.50;92.90;;;;;;5055333;28;20788;-62
2024/02/24 10:26:26;;;;;;;2.20;1.40;;;9.50;92.90;;;;;;5055050;28;20449;-60
2024/02/24 10:28:54;;;;;;;1.90;1.20;;;9.60;92.50;;;;;;5056208;28;20535;-61
2024/02/24 10:31:23;;;;;;;2.08;1.35;;;9.60;92.20;;;;;;5054639;28;20518;-60
2024/02/24 10:33:51;;;;;;;3.70;1.47;;;9.70;91.70;;;;;;5054522;28;20230;-63
2024/02/24 10:36:19;;;;;;;3.10;1.50;;;9.70;91.00;;;;;;5054432;28;20443;-62
2024/02/24 10:38:49;;;;;;;3.00;1.60;;;9.60;90.60;;;;;;5054622;28;20491;-62
2024/02/24 10:41:18;;;;;;;2.00;1.40;;;9.60;90.50;;;;;;5054850;28;20465;-63
2024/02/24 10:43:47;;;;;;;2.07;1.30;;;9.70;90.50;;;;;;5054858;28;20429;-62
2024/02/24 10:46:14;;;;;;;1.60;1.17;;;9.70;90.30;;;;;;5055634;28;20437;-63
2024/02/24 10:48:42;;;;;;;1.17;1.00;;;9.80;89.60;;;;;;5054735;28;20445;-62
2024/02/24 10:51:11;;;;;;;1.20;1.07;;;9.90;87.60;;;;;;5054468;28;20556;-62
2024/02/24 10:53:41;;;;;;;7.10;2.00;;;9.90;86.50;;;;;;5054065;28;20809;-62
2024/02/24 10:56:08;;;;;;;1.77;1.20;;;10.00;84.70;;;;;;5054613;28;20464;-63
2024/02/24 10:58:35;;;;;;;4.10;1.10;;;10.20;83.70;;;;;;5054007;28;20817;-63
2024/02/24 11:01:04;;;;;;;1.60;1.00;;;10.30;81.80;;;;;;5054603;28;20482;-61
2024/02/24 11:03:31;;;;;;;4.40;1.70;;;10.30;80.20;;;;;;5054200;28;20427;-64
2024/02/24 11:06:01;;;;;;;3.80;1.90;;;10.40;79.80;;;;;;5053507;28;20453;-63
2024/02/24 11:08:39;;;;;;;4.10;1.73;;;10.50;79.70;;;;;;5054144;28;20465;-63
2024/02/24 11:11:08;;;;;;;3.13;1.77;;;10.70;79.40;;;;;;5054011;28;20466;-62
2024/02/24 11:13:35;;;;;;;3.73;1.77;;;10.70;79.50;;;;;;5053180;28;20482;-62
2024/02/24 11:16:04;;;;;;;2.67;1.63;;;10.90;79.70;;;;;;5054352;28;20446;-63
2024/02/24 11:18:53;;;;;;;2.57;1.80;;;11.00;79.50;;;;;;5053771;28;20449;-62
2024/02/24 11:21:42;;;;;;;2.87;1.50;;;11.20;79.10;;;;;;5052896;28;20475;-64
2024/02/24 11:24:17;;;;;;;4.87;1.60;;;11.40;78.50;;;;;;5052707;28;20441;-63
2024/02/24 11:26:45;;;;;;;3.83;1.50;;;11.60;77.40;;;;;;5054194;28;20470;-62
2024/02/24 11:29:17;;;;;;;4.60;1.63;;;11.90;76.30;;;;;;5055232;28;20510;-62
2024/02/24 11:31:45;;;;;;;2.47;1.53;;;12.10;75.00;;;;;;5055512;28;20467;-63
2024/02/24 11:34:12;;;;;;;3.00;1.90;;;12.40;74.00;;;;;;5056105;28;20476;-64
2024/02/24 11:36:41;;;;;;;3.10;1.83;;;12.70;72.50;;;;;;5054376;28;20448;-62
2024/02/24 11:39:11;;;;;;;2.53;1.60;;;12.90;71.20;;;;;;5053328;28;20598;-63
2024/02/24 11:41:40;;;;;;;2.47;1.77;;;12.90;70.00;;;;;;5053442;28;20467;-62
2024/02/24 11:44:08;;;;;;;5.43;3.00;;;12.70;69.70;;;;;;5053840;28;20534;-62
2024/02/24 11:46:36;;;;;;;3.20;1.87;;;12.60;69.70;;;;;;5053780;28;20436;-61
2024/02/24 11:49:03;;;;;;;2.63;1.40;;;12.50;69.90;;;;;;5059611;28;20440;-64
2024/02/24 11:51:30;;;;;;;3.90;1.97;;;12.50;69.70;;;;;;5059798;28;20472;-62
2024/02/24 11:53:59;;;;;;;2.10;1.90;;;12.50;69.40;;;;;;5060458;28;20479;-59
2024/02/24 11:56:26;;;;;;;3.50;1.87;;;12.30;69.20;;;;;;5059129;28;20443;-60
2024/02/24 11:58:55;;;;;;;3.07;1.60;;;12.20;69.40;;;;;;5055097;28;20985;-60
2024/02/24 12:01:22;;;;;;;4.80;2.30;;;11.90;69.50;;;;;;5056207;28;20546;-59
2024/02/24 12:03:53;;;;;;;3.90;2.13;;;11.60;70.00;;;;;;5056207;28;20440;-60
2024/02/24 12:06:20;;;;;;;2.50;1.70;;;11.40;70.70;;;;;;5055228;28;20473;-60
2024/02/24 12:08:48;;;;;;;2.23;1.43;;;11.10;71.10;;;;;;5056534;28;20459;-60
2024/02/24 12:11:17;;;;;;;2.27;1.37;;;11.00;71.50;;;;;;5055984;28;20464;-60
2024/02/24 12:13:45;;;;;;;1.60;1.10;;;10.80;72.10;;;;;;5054163;28;20494;-61
2024/02/24 12:16:12;;;;;;;1.57;0.87;;;10.80;72.20;;;;;;5053390;28;20503;-61
2024/02/24 12:18:41;;;;;;;1.80;1.00;;;10.80;71.50;;;;;;5053788;28;20446;-60
2024/02/24 12:21:08;;;;;;;1.30;0.90;;;10.70;71.10;;;;;;5053299;28;20885;-60
2024/02/24 12:23:37;;;;;;;0.90;0.63;;;10.70;70.10;;;;;;5052932;28;20446;-60
2024/02/24 12:26:11;;;;;;;1.00;0.90;;;10.50;69.80;;;;;;5056110;28;20443;-60
2024/02/24 12:28:40;;;;;;;3.33;1.10;;;10.40;70.10;;;;;;5059445;28;20522;-60
2024/02/24 12:31:08;;;;;;;2.07;1.20;;;10.20;70.50;;;;;;5060513;28;20462;-61
2024/02/24 12:33:36;;;;;;;1.30;0.90;;;10.00;71.90;;;;;;5059056;28;20448;-59
2024/02/24 12:36:05;;;;;;;1.20;1.00;;;9.90;74.50;;;;;;5060859;28;20482;-59
2024/02/24 12:38:32;;;;;;;2.37;1.07;;;9.80;75.90;;;;;;5062465;28;20438;-60
2024/02/24 12:40:59;;;;;;;1.27;1.03;;;9.80;76.90;;;;;;5061772;28;20471;-59
2024/02/24 12:43:26;;;;;;;2.00;1.50;;;9.90;77.60;;;;;;5060160;28;20451;-60
2024/02/24 12:45:54;;;;;;;1.93;1.63;;;9.90;78.00;;;;;;5062525;28;20936;-59
2024/02/24 12:48:22;;;;;;;1.17;0.93;;;9.90;78.40;;;;;;5063110;28;20448;-61
2024/02/24 12:50:49;;;;;;;2.10;1.30;;;10.00;77.80;;;;;;5059552;28;20473;-58
2024/02/24 12:53:16;;;;;;;1.47;1.20;;;10.00;78.20;;;;;;5058981;28;20454;-61
2024/02/24 12:55:43;;;;;;;1.47;1.20;;;10.20;79.10;;;;;;5058806;28;20488;-61
2024/02/24 12:58:09;;;;;;;2.40;1.23;;;10.40;79.00;;;;;;5057858;28;20454;-59